Adelanto, California
Current Conditions -  °F | °C
As of 2:35 PM on Tuesday 27 Jan 2015 (Local Time) from KVCV Reporting Station
NA  
Wind Chill: 15°   Ceiling: NA
Heat Index: 15°   Visibility: 10mi
Dew Point:   Wind: 0mph
Humidity: 63%   Direction: NA
Pressure: 30.2"   Gusts: NA
Location:  34.58°N, 117.41°W
Report Text: KVCV 272235Z AUTO 00000KT 10SM 15/08 A3020 RMK AO2
Loading
Personal Weather Stations






























Interactive Weather Map New forecast layout! Learn more

10-Day Weather Forecast

Advertisements
Track Severe Weather on mobile